sensor_id;sensor_type;location;lat;lon;timestamp;P1;durP1;ratioP1;P2;durP2;ratioP2
11473;SDS011;5793;52.238;13.438;2024-01-15T00:02:29;17.03;;;11.93;;
11473;SDS011;5793;52.238;13.438;2024-01-15T00:04:56;15.97;;;11.97;;
11473;SDS011;5793;52.238;13.438;2024-01-15T00:07:24;16.00;;;11.37;;
11473;SDS011;5793;52.238;13.438;2024-01-15T00:09:52;17.13;;;12.17;;
11473;SDS011;5793;52.238;13.438;2024-01-15T00:12:20;17.67;;;12.17;;
11473;SDS011;5793;52.238;13.438;2024-01-15T00:14:48;16.63;;;11.60;;
11473;SDS011;5793;52.238;13.438;2024-01-15T00:17:16;18.27;;;11.53;;
11473;SDS011;5793;52.238;13.438;2024-01-15T00:19:45;18.13;;;12.37;;
11473;SDS011;5793;52.238;13.438;2024-01-15T00:22:13;17.20;;;11.57;;
11473;SDS011;5793;52.238;13.438;2024-01-15T00:24:40;17.97;;;12.03;;
11473;SDS011;5793;52.238;13.438;2024-01-15T00:27:08;18.73;;;12.57;;
11473;SDS011;5793;52.238;13.438;2024-01-15T00:29:36;18.70;;;12.43;;
11473;SDS011;5793;52.238;13.438;2024-01-15T00:32:04;18.70;;;12.30;;
11473;SDS011;5793;52.238;13.438;2024-01-15T00:34:32;20.07;;;12.70;;
11473;SDS011;5793;52.238;13.438;2024-01-15T00:37:02;21.10;;;13.17;;
11473;SDS011;5793;52.238;13.438;2024-01-15T00:39:33;20.90;;;12.87;;
11473;SDS011;5793;52.238;13.438;2024-01-15T00:42:01;23.33;;;14.00;;
11473;SDS011;5793;52.238;13.438;2024-01-15T00:44:29;18.80;;;12.77;;
11473;SDS011;5793;52.238;13.438;2024-01-15T00:46:57;21.33;;;13.53;;
11473;SDS011;5793;52.238;13.438;2024-01-15T00:49:26;25.27;;;13.50;;
11473;SDS011;5793;52.238;13.438;2024-01-15T00:51:54;19.00;;;12.57;;
11473;SDS011;5793;52.238;13.438;2024-01-15T00:54:23;21.23;;;12.93;;
11473;SDS011;5793;52.238;13.438;2024-01-15T00:56:51;20.30;;;13.07;;
11473;SDS011;5793;52.238;13.438;2024-01-15T00:59:19;22.20;;;13.13;;
11473;SDS011;5793;52.238;13.438;2024-01-15T01:01:47;19.73;;;13.90;;
11473;SDS011;5793;52.238;13.438;2024-01-15T01:04:15;17.77;;;11.57;;
11473;SDS011;5793;52.238;13.438;2024-01-15T01:06:43;19.40;;;11.23;;
11473;SDS011;5793;52.238;13.438;2024-01-15T01:09:11;17.67;;;11.30;;
11473;SDS011;5793;52.238;13.438;2024-01-15T01:11:40;16.47;;;10.97;;
11473;SDS011;5793;52.238;13.438;2024-01-15T01:14:08;17.70;;;11.13;;
11473;SDS011;5793;52.238;13.438;2024-01-15T01:16:35;18.40;;;11.57;;
11473;SDS011;5793;52.238;13.438;2024-01-15T01:19:05;16.23;;;10.73;;
11473;SDS011;5793;52.238;13.438;2024-01-15T01:21:34;18.57;;;11.50;;
11473;SDS011;5793;52.238;13.438;2024-01-15T01:24:02;17.60;;;11.57;;
11473;SDS011;5793;52.238;13.438;2024-01-15T01:26:30;18.37;;;12.23;;
11473;SDS011;5793;52.238;13.438;2024-01-15T01:28:59;17.53;;;11.63;;
11473;SDS011;5793;52.238;13.438;2024-01-15T01:31:27;17.73;;;11.23;;
11473;SDS011;5793;52.238;13.438;2024-01-15T01:33:55;17.80;;;11.70;;
11473;SDS011;5793;52.238;13.438;2024-01-15T01:36:23;19.43;;;12.70;;
11473;SDS011;5793;52.238;13.438;2024-01-15T01:38:51;19.20;;;12.50;;
11473;SDS011;5793;52.238;13.438;2024-01-15T01:41:19;17.50;;;11.97;;
11473;SDS011;5793;52.238;13.438;2024-01-15T01:43:47;21.33;;;13.27;;
11473;SDS011;5793;52.238;13.438;2024-01-15T01:46:16;18.53;;;12.73;;
11473;SDS011;5793;52.238;13.438;2024-01-15T01:48:44;17.90;;;12.73;;
11473;SDS011;5793;52.238;13.438;2024-01-15T01:51:12;17.30;;;12.17;;
11473;SDS011;5793;52.238;13.438;2024-01-15T01:53:40;22.53;;;13.27;;
11473;SDS011;5793;52.238;13.438;2024-01-15T01:56:08;18.07;;;12.00;;
11473;SDS011;5793;52.238;13.438;2024-01-15T01:58:37;19.13;;;12.83;;
11473;SDS011;5793;52.238;13.438;2024-01-15T02:01:04;19.35;;;12.85;;
11473;SDS011;5793;52.238;13.438;2024-01-15T02:03:35;19.27;;;12.67;;
11473;SDS011;5793;52.238;13.438;2024-01-15T02:06:03;15.93;;;11.97;;
11473;SDS011;5793;52.238;13.438;2024-01-15T02:08:31;15.10;;;11.40;;
11473;SDS011;5793;52.238;13.438;2024-01-15T02:10:59;18.07;;;11.53;;
11473;SDS011;5793;52.238;13.438;2024-01-15T02:13:27;15.13;;;11.40;;
11473;SDS011;5793;52.238;13.438;2024-01-15T02:15:55;16.87;;;11.70;;
11473;SDS011;5793;52.238;13.438;2024-01-15T02:18:23;15.53;;;9.97;;
11473;SDS011;5793;52.238;13.438;2024-01-15T02:20:52;14.30;;;10.00;;
11473;SDS011;5793;52.238;13.438;2024-01-15T02:23:21;13.97;;;9.77;;
11473;SDS011;5793;52.238;13.438;2024-01-15T02:25:49;15.17;;;10.20;;
11473;SDS011;5793;52.238;13.438;2024-01-15T02:28:17;14.53;;;9.70;;
11473;SDS011;5793;52.238;13.438;2024-01-15T02:30:45;13.33;;;9.67;;
11473;SDS011;5793;52.238;13.438;2024-01-15T02:33:13;13.63;;;10.07;;
11473;SDS011;5793;52.238;13.438;2024-01-15T02:35:41;13.57;;;9.87;;
11473;SDS011;5793;52.238;13.438;2024-01-15T02:38:08;13.73;;;9.50;;
11473;SDS011;5793;52.238;13.438;2024-01-15T02:40:37;14.33;;;10.53;;
11473;SDS011;5793;52.238;13.438;2024-01-15T02:43:06;13.23;;;9.13;;
11473;SDS011;5793;52.238;13.438;2024-01-15T02:45:34;14.13;;;10.03;;
11473;SDS011;5793;52.238;13.438;2024-01-15T02:48:02;15.53;;;9.73;;
11473;SDS011;5793;52.238;13.438;2024-01-15T02:50:30;14.23;;;9.20;;
11473;SDS011;5793;52.238;13.438;2024-01-15T02:52:58;14.60;;;10.07;;
11473;SDS011;5793;52.238;13.438;2024-01-15T02:55:25;14.30;;;9.87;;
11473;SDS011;5793;52.238;13.438;2024-01-15T02:57:57;14.10;;;10.43;;
11473;SDS011;5793;52.238;13.438;2024-01-15T03:00:24;12.83;;;9.17;;
11473;SDS011;5793;52.238;13.438;2024-01-15T03:02:52;13.80;;;9.77;;
11473;SDS011;5793;52.238;13.438;2024-01-15T03:05:20;13.10;;;9.30;;
11473;SDS011;5793;52.238;13.438;2024-01-15T03:07:48;13.40;;;9.80;;
11473;SDS011;5793;52.238;13.438;2024-01-15T03:10:16;12.73;;;9.20;;
11473;SDS011;5793;52.238;13.438;2024-01-15T03:12:44;12.83;;;8.90;;
11473;SDS011;5793;52.238;13.438;2024-01-15T03:15:13;13.70;;;9.57;;
11473;SDS011;5793;52.238;13.438;2024-01-15T03:17:41;14.77;;;9.43;;
11473;SDS011;5793;52.238;13.438;2024-01-15T03:20:10;12.63;;;9.07;;
11473;SDS011;5793;52.238;13.438;2024-01-15T03:22:38;16.47;;;9.80;;
11473;SDS011;5793;52.238;13.438;2024-01-15T03:25:06;13.83;;;10.23;;
11473;SDS011;5793;52.238;13.438;2024-01-15T03:27:34;13.67;;;9.60;;
11473;SDS011;5793;52.238;13.438;2024-01-15T03:30:02;14.23;;;8.80;;
11473;SDS011;5793;52.238;13.438;2024-01-15T03:32:32;11.77;;;8.73;;
11473;SDS011;5793;52.238;13.438;2024-01-15T03:35:00;14.37;;;8.60;;
11473;SDS011;5793;52.238;13.438;2024-01-15T03:37:28;17.37;;;9.83;;
11473;SDS011;5793;52.238;13.438;2024-01-15T03:39:56;15.07;;;9.23;;
11473;SDS011;5793;52.238;13.438;2024-01-15T03:42:23;12.97;;;9.07;;
11473;SDS011;5793;52.238;13.438;2024-01-15T03:44:51;12.37;;;8.87;;
11473;SDS011;5793;52.238;13.438;2024-01-15T03:47:19;15.40;;;9.17;;
11473;SDS011;5793;52.238;13.438;2024-01-15T03:49:48;15.67;;;8.57;;
11473;SDS011;5793;52.238;13.438;2024-01-15T03:52:16;13.73;;;7.83;;
11473;SDS011;5793;52.238;13.438;2024-01-15T03:54:44;11.30;;;7.77;;
11473;SDS011;5793;52.238;13.438;2024-01-15T03:57:12;10.07;;;6.90;;
11473;SDS011;5793;52.238;13.438;2024-01-15T03:59:40;12.00;;;7.10;;
11473;SDS011;5793;52.238;13.438;2024-01-15T04:02:08;12.20;;;7.90;;
11473;SDS011;5793;52.238;13.438;2024-01-15T04:04:36;12.13;;;7.40;;
11473;SDS011;5793;52.238;13.438;2024-01-15T04:07:08;13.07;;;7.50;;
11473;SDS011;5793;52.238;13.438;2024-01-15T04:09:36;10.77;;;6.77;;
11473;SDS011;5793;52.238;13.438;2024-01-15T04:12:04;10.57;;;6.77;;
11473;SDS011;5793;52.238;13.438;2024-01-15T04:14:32;16.83;;;6.77;;
11473;SDS011;5793;52.238;13.438;2024-01-15T04:17:00;9.97;;;6.90;;
11473;SDS011;5793;52.238;13.438;2024-01-15T04:19:28;11.07;;;6.43;;
11473;SDS011;5793;52.238;13.438;2024-01-15T04:21:56;10.80;;;6.80;;
11473;SDS011;5793;52.238;13.438;2024-01-15T04:24:25;9.70;;;6.33;;
11473;SDS011;5793;52.238;13.438;2024-01-15T04:26:53;9.47;;;6.20;;
11473;SDS011;5793;52.238;13.438;2024-01-15T04:29:20;7.47;;;5.50;;
11473;SDS011;5793;52.238;13.438;2024-01-15T04:31:48;11.77;;;6.10;;
11473;SDS011;5793;52.238;13.438;2024-01-15T04:34:16;10.60;;;6.70;;
11473;SDS011;5793;52.238;13.438;2024-01-15T04:36:44;7.73;;;5.47;;
11473;SDS011;5793;52.238;13.438;2024-01-15T04:39:12;11.50;;;6.50;;
11473;SDS011;5793;52.238;13.438;2024-01-15T04:41:41;9.17;;;5.53;;
11473;SDS011;5793;52.238;13.438;2024-01-15T04:44:09;9.30;;;5.60;;
11473;SDS011;5793;52.238;13.438;2024-01-15T04:46:37;7.97;;;4.73;;
11473;SDS011;5793;52.238;13.438;2024-01-15T04:49:04;8.63;;;5.50;;
11473;SDS011;5793;52.238;13.438;2024-01-15T04:51:32;11.27;;;5.20;;
11473;SDS011;5793;52.238;13.438;2024-01-15T04:54:01;8.47;;;4.90;;
11473;SDS011;5793;52.238;13.438;2024-01-15T04:56:29;12.57;;;4.80;;
11473;SDS011;5793;52.238;13.438;2024-01-15T04:58:58;9.40;;;5.17;;
11473;SDS011;5793;52.238;13.438;2024-01-15T05:01:29;10.47;;;4.80;;
11473;SDS011;5793;52.238;13.438;2024-01-15T05:03:58;8.77;;;5.18;;
11473;SDS011;5793;52.238;13.438;2024-01-15T05:06:26;11.30;;;4.93;;
11473;SDS011;5793;52.238;13.438;2024-01-15T05:08:54;10.73;;;5.70;;
11473;SDS011;5793;52.238;13.438;2024-01-15T05:11:22;9.10;;;4.93;;
11473;SDS011;5793;52.238;13.438;2024-01-15T05:13:50;9.63;;;4.63;;
11473;SDS011;5793;52.238;13.438;2024-01-15T05:16:19;8.03;;;4.70;;
11473;SDS011;5793;52.238;13.438;2024-01-15T05:18:47;11.77;;;5.13;;
11473;SDS011;5793;52.238;13.438;2024-01-15T05:21:15;7.77;;;5.03;;
11473;SDS011;5793;52.238;13.438;2024-01-15T05:23:43;11.10;;;4.47;;
11473;SDS011;5793;52.238;13.438;2024-01-15T05:26:11;9.00;;;5.43;;
11473;SDS011;5793;52.238;13.438;2024-01-15T05:28:40;8.57;;;5.00;;
11473;SDS011;5793;52.238;13.438;2024-01-15T05:31:08;10.57;;;4.83;;
11473;SDS011;5793;52.238;13.438;2024-01-15T05:33:38;11.40;;;4.87;;
11473;SDS011;5793;52.238;13.438;2024-01-15T05:36:06;10.57;;;4.87;;
11473;SDS011;5793;52.238;13.438;2024-01-15T05:38:34;9.03;;;3.87;;
11473;SDS011;5793;52.238;13.438;2024-01-15T05:41:02;6.97;;;3.73;;
11473;SDS011;5793;52.238;13.438;2024-01-15T05:43:30;7.30;;;3.80;;
11473;SDS011;5793;52.238;13.438;2024-01-15T05:45:58;10.30;;;4.10;;
11473;SDS011;5793;52.238;13.438;2024-01-15T05:48:25;15.57;;;4.70;;
11473;SDS011;5793;52.238;13.438;2024-01-15T05:50:55;7.20;;;4.10;;
11473;SDS011;5793;52.238;13.438;2024-01-15T05:53:22;8.77;;;4.00;;
11473;SDS011;5793;52.238;13.438;2024-01-15T05:55:50;8.63;;;3.57;;
11473;SDS011;5793;52.238;13.438;2024-01-15T05:58:18;8.57;;;3.70;;
11473;SDS011;5793;52.238;13.438;2024-01-15T06:00:46;8.77;;;3.77;;
11473;SDS011;5793;52.238;13.438;2024-01-15T06:03:16;7.73;;;3.60;;
11473;SDS011;5793;52.238;13.438;2024-01-15T06:05:44;12.70;;;3.87;;
11473;SDS011;5793;52.238;13.438;2024-01-15T06:08:13;7.47;;;3.50;;
11473;SDS011;5793;52.238;13.438;2024-01-15T06:10:41;11.93;;;4.00;;
11473;SDS011;5793;52.238;13.438;2024-01-15T06:13:09;8.63;;;3.60;;
11473;SDS011;5793;52.238;13.438;2024-01-15T06:15:37;12.67;;;3.87;;
11473;SDS011;5793;52.238;13.438;2024-01-15T06:18:05;7.07;;;3.50;;
11473;SDS011;5793;52.238;13.438;2024-01-15T06:20:33;7.63;;;3.40;;
11473;SDS011;5793;52.238;13.438;2024-01-15T06:23:01;8.97;;;3.40;;
11473;SDS011;5793;52.238;13.438;2024-01-15T06:25:30;5.77;;;3.43;;
11473;SDS011;5793;52.238;13.438;2024-01-15T06:27:58;8.30;;;3.40;;
11473;SDS011;5793;52.238;13.438;2024-01-15T06:30:25;11.03;;;3.63;;
11473;SDS011;5793;52.238;13.438;2024-01-15T06:32:53;7.07;;;3.20;;
11473;SDS011;5793;52.238;13.438;2024-01-15T06:35:21;11.93;;;3.50;;
11473;SDS011;5793;52.238;13.438;2024-01-15T06:37:49;10.67;;;3.40;;
11473;SDS011;5793;52.238;13.438;2024-01-15T06:40:17;9.50;;;3.30;;
11473;SDS011;5793;52.238;13.438;2024-01-15T06:42:46;10.57;;;3.70;;
11473;SDS011;5793;52.238;13.438;2024-01-15T06:45:14;10.80;;;3.43;;
11473;SDS011;5793;52.238;13.438;2024-01-15T06:47:42;5.50;;;2.97;;
11473;SDS011;5793;52.238;13.438;2024-01-15T06:50:09;9.63;;;3.97;;
11473;SDS011;5793;52.238;13.438;2024-01-15T06:52:37;8.67;;;2.90;;
11473;SDS011;5793;52.238;13.438;2024-01-15T06:55:05;10.30;;;3.07;;
11473;SDS011;5793;52.238;13.438;2024-01-15T06:57:34;14.87;;;3.40;;
11473;SDS011;5793;52.238;13.438;2024-01-15T07:00:04;8.40;;;3.37;;
11473;SDS011;5793;52.238;13.438;2024-01-15T07:02:35;8.83;;;2.93;;
11473;SDS011;5793;52.238;13.438;2024-01-15T07:05:02;7.90;;;2.87;;
11473;SDS011;5793;52.238;13.438;2024-01-15T07:07:31;8.60;;;3.00;;
11473;SDS011;5793;52.238;13.438;2024-01-15T07:09:59;6.30;;;3.13;;
11473;SDS011;5793;52.238;13.438;2024-01-15T07:12:27;5.83;;;2.90;;
11473;SDS011;5793;52.238;13.438;2024-01-15T07:14:55;8.40;;;3.57;;
11473;SDS011;5793;52.238;13.438;2024-01-15T07:17:24;6.70;;;3.00;;
11473;SDS011;5793;52.238;13.438;2024-01-15T07:19:52;8.80;;;3.00;;
11473;SDS011;5793;52.238;13.438;2024-01-15T07:22:20;8.63;;;3.10;;
11473;SDS011;5793;52.238;13.438;2024-01-15T07:24:48;8.03;;;3.00;;
11473;SDS011;5793;52.238;13.438;2024-01-15T07:27:16;8.33;;;2.83;;
11473;SDS011;5793;52.238;13.438;2024-01-15T07:29:44;10.53;;;3.00;;
11473;SDS011;5793;52.238;13.438;2024-01-15T07:32:11;7.20;;;2.83;;
11473;SDS011;5793;52.238;13.438;2024-01-15T07:34:40;8.17;;;2.87;;
11473;SDS011;5793;52.238;13.438;2024-01-15T07:37:08;10.77;;;2.90;;
11473;SDS011;5793;52.238;13.438;2024-01-15T07:39:36;10.30;;;3.07;;
11473;SDS011;5793;52.238;13.438;2024-01-15T07:42:05;12.73;;;3.10;;
11473;SDS011;5793;52.238;13.438;2024-01-15T07:44:33;10.50;;;3.40;;
11473;SDS011;5793;52.238;13.438;2024-01-15T07:47:03;8.80;;;2.90;;
11473;SDS011;5793;52.238;13.438;2024-01-15T07:49:32;9.10;;;3.17;;
11473;SDS011;5793;52.238;13.438;2024-01-15T07:52:02;8.27;;;3.63;;
11473;SDS011;5793;52.238;13.438;2024-01-15T07:54:31;11.07;;;3.80;;
11473;SDS011;5793;52.238;13.438;2024-01-15T07:56:59;9.67;;;3.67;;
11473;SDS011;5793;52.238;13.438;2024-01-15T07:59:29;8.97;;;3.43;;
11473;SDS011;5793;52.238;13.438;2024-01-15T08:01:58;12.00;;;3.80;;
11473;SDS011;5793;52.238;13.438;2024-01-15T08:04:26;8.30;;;3.70;;
11473;SDS011;5793;52.238;13.438;2024-01-15T08:06:54;11.30;;;3.00;;
11473;SDS011;5793;52.238;13.438;2024-01-15T08:09:24;7.33;;;3.13;;
11473;SDS011;5793;52.238;13.438;2024-01-15T08:11:52;9.23;;;3.63;;
11473;SDS011;5793;52.238;13.438;2024-01-15T08:14:20;5.33;;;2.83;;
11473;SDS011;5793;52.238;13.438;2024-01-15T08:16:48;7.07;;;3.00;;
11473;SDS011;5793;52.238;13.438;2024-01-15T08:19:15;10.00;;;3.57;;
11473;SDS011;5793;52.238;13.438;2024-01-15T08:21:43;7.40;;;3.37;;
11473;SDS011;5793;52.238;13.438;2024-01-15T08:24:11;7.93;;;3.20;;
11473;SDS011;5793;52.238;13.438;2024-01-15T08:26:40;12.33;;;3.67;;
11473;SDS011;5793;52.238;13.438;2024-01-15T08:29:08;8.33;;;3.17;;
11473;SDS011;5793;52.238;13.438;2024-01-15T08:31:36;11.63;;;3.87;;
11473;SDS011;5793;52.238;13.438;2024-01-15T08:34:04;7.47;;;3.23;;
11473;SDS011;5793;52.238;13.438;2024-01-15T08:36:32;6.63;;;3.23;;
11473;SDS011;5793;52.238;13.438;2024-01-15T08:39:02;11.43;;;3.70;;
11473;SDS011;5793;52.238;13.438;2024-01-15T08:41:31;8.93;;;3.27;;
11473;SDS011;5793;52.238;13.438;2024-01-15T08:44:00;8.10;;;3.23;;
11473;SDS011;5793;52.238;13.438;2024-01-15T08:46:28;7.57;;;2.90;;
11473;SDS011;5793;52.238;13.438;2024-01-15T08:48:56;7.07;;;3.50;;
11473;SDS011;5793;52.238;13.438;2024-01-15T08:51:24;4.93;;;3.30;;
11473;SDS011;5793;52.238;13.438;2024-01-15T08:53:52;7.50;;;3.37;;
11473;SDS011;5793;52.238;13.438;2024-01-15T08:56:20;5.90;;;3.03;;
11473;SDS011;5793;52.238;13.438;2024-01-15T08:58:48;16.57;;;4.10;;
11473;SDS011;5793;52.238;13.438;2024-01-15T09:01:17;11.90;;;3.93;;
11473;SDS011;5793;52.238;13.438;2024-01-15T09:03:45;7.97;;;3.37;;
11473;SDS011;5793;52.238;13.438;2024-01-15T09:06:14;10.53;;;3.50;;
11473;SDS011;5793;52.238;13.438;2024-01-15T09:08:42;8.10;;;3.53;;
11473;SDS011;5793;52.238;13.438;2024-01-15T09:11:10;8.00;;;3.80;;
11473;SDS011;5793;52.238;13.438;2024-01-15T09:13:38;10.63;;;3.50;;
11473;SDS011;5793;52.238;13.438;2024-01-15T09:16:06;8.90;;;3.60;;
11473;SDS011;5793;52.238;13.438;2024-01-15T09:18:37;5.33;;;3.40;;
11473;SDS011;5793;52.238;13.438;2024-01-15T09:21:05;10.37;;;3.40;;
11473;SDS011;5793;52.238;13.438;2024-01-15T09:23:32;11.43;;;3.20;;
11473;SDS011;5793;52.238;13.438;2024-01-15T09:26:00;9.00;;;3.60;;
11473;SDS011;5793;52.238;13.438;2024-01-15T09:28:28;10.30;;;3.70;;
11473;SDS011;5793;52.238;13.438;2024-01-15T09:30:56;6.93;;;3.23;;
11473;SDS011;5793;52.238;13.438;2024-01-15T09:33:24;6.53;;;2.83;;
11473;SDS011;5793;52.238;13.438;2024-01-15T09:35:53;8.83;;;3.27;;
11473;SDS011;5793;52.238;13.438;2024-01-15T09:38:21;8.90;;;3.60;;
11473;SDS011;5793;52.238;13.438;2024-01-15T09:40:50;8.70;;;3.80;;
11473;SDS011;5793;52.238;13.438;2024-01-15T09:43:18;8.67;;;3.50;;
11473;SDS011;5793;52.238;13.438;2024-01-15T09:45:47;7.73;;;3.53;;
11473;SDS011;5793;52.238;13.438;2024-01-15T09:48:16;7.03;;;3.80;;
11473;SDS011;5793;52.238;13.438;2024-01-15T09:50:44;9.47;;;3.70;;
11473;SDS011;5793;52.238;13.438;2024-01-15T09:53:14;6.80;;;3.20;;
11473;SDS011;5793;52.238;13.438;2024-01-15T09:55:42;8.33;;;3.53;;
11473;SDS011;5793;52.238;13.438;2024-01-15T09:58:10;10.90;;;3.77;;
11473;SDS011;5793;52.238;13.438;2024-01-15T10:00:38;6.93;;;3.60;;
11473;SDS011;5793;52.238;13.438;2024-01-15T10:03:08;8.50;;;3.63;;
11473;SDS011;5793;52.238;13.438;2024-01-15T10:05:37;7.30;;;3.70;;
11473;SDS011;5793;52.238;13.438;2024-01-15T10:08:05;6.60;;;3.90;;
11473;SDS011;5793;52.238;13.438;2024-01-15T10:10:35;5.93;;;3.93;;
11473;SDS011;5793;52.238;13.438;2024-01-15T10:13:03;6.30;;;3.97;;
11473;SDS011;5793;52.238;13.438;2024-01-15T10:15:33;5.00;;;3.60;;
11473;SDS011;5793;52.238;13.438;2024-01-15T10:18:03;7.73;;;4.17;;
11473;SDS011;5793;52.238;13.438;2024-01-15T10:20:32;7.93;;;4.50;;
11473;SDS011;5793;52.238;13.438;2024-01-15T10:23:00;8.60;;;4.27;;
11473;SDS011;5793;52.238;13.438;2024-01-15T10:25:29;9.10;;;4.20;;
11473;SDS011;5793;52.238;13.438;2024-01-15T10:28:01;7.30;;;4.00;;
11473;SDS011;5793;52.238;13.438;2024-01-15T10:30:31;7.47;;;3.80;;
11473;SDS011;5793;52.238;13.438;2024-01-15T10:33:01;7.47;;;3.70;;
11473;SDS011;5793;52.238;13.438;2024-01-15T10:35:30;6.93;;;4.07;;
11473;SDS011;5793;52.238;13.438;2024-01-15T10:37:58;7.47;;;3.97;;
11473;SDS011;5793;52.238;13.438;2024-01-15T10:40:26;5.73;;;3.60;;
11473;SDS011;5793;52.238;13.438;2024-01-15T10:42:54;8.67;;;3.73;;
11473;SDS011;5793;52.238;13.438;2024-01-15T10:45:24;6.17;;;3.53;;
11473;SDS011;5793;52.238;13.438;2024-01-15T10:47:52;5.87;;;3.50;;
11473;SDS011;5793;52.238;13.438;2024-01-15T10:50:25;7.23;;;3.70;;
11473;SDS011;5793;52.238;13.438;2024-01-15T10:52:53;5.70;;;3.30;;
11473;SDS011;5793;52.238;13.438;2024-01-15T10:55:21;7.03;;;3.53;;
11473;SDS011;5793;52.238;13.438;2024-01-15T10:57:50;8.07;;;3.90;;
11473;SDS011;5793;52.238;13.438;2024-01-15T11:00:19;5.57;;;3.40;;
11473;SDS011;5793;52.238;13.438;2024-01-15T11:02:49;7.80;;;3.87;;
11473;SDS011;5793;52.238;13.438;2024-01-15T11:05:21;6.77;;;3.67;;
11473;SDS011;5793;52.238;13.438;2024-01-15T11:07:49;5.33;;;3.77;;
11473;SDS011;5793;52.238;13.438;2024-01-15T11:13:08;7.63;;;3.40;;
11473;SDS011;5793;52.238;13.438;2024-01-15T11:18:27;7.63;;;3.70;;
11473;SDS011;5793;52.238;13.438;2024-01-15T11:23:54;6.07;;;3.67;;
11473;SDS011;5793;52.238;13.438;2024-01-15T11:26:27;6.93;;;3.93;;
11473;SDS011;5793;52.238;13.438;2024-01-15T11:28:56;9.57;;;4.40;;
11473;SDS011;5793;52.238;13.438;2024-01-15T11:31:27;8.07;;;4.60;;
11473;SDS011;5793;52.238;13.438;2024-01-15T11:33:57;8.80;;;4.67;;
11473;SDS011;5793;52.238;13.438;2024-01-15T11:39:40;6.33;;;4.50;;
11473;SDS011;5793;52.238;13.438;2024-01-15T11:42:10;9.93;;;5.50;;
11473;SDS011;5793;52.238;13.438;2024-01-15T11:44:39;10.47;;;5.37;;
11473;SDS011;5793;52.238;13.438;2024-01-15T11:47:08;7.80;;;5.07;;
11473;SDS011;5793;52.238;13.438;2024-01-15T11:52:32;9.73;;;5.20;;
11473;SDS011;5793;52.238;13.438;2024-01-15T11:55:02;7.20;;;4.50;;
11473;SDS011;5793;52.238;13.438;2024-01-15T11:57:41;5.30;;;4.10;;
11473;SDS011;5793;52.238;13.438;2024-01-15T12:00:13;8.23;;;5.07;;
11473;SDS011;5793;52.238;13.438;2024-01-15T12:02:41;8.37;;;6.00;;
11473;SDS011;5793;52.238;13.438;2024-01-15T12:05:12;7.63;;;4.63;;
11473;SDS011;5793;52.238;13.438;2024-01-15T12:07:41;7.53;;;4.37;;
11473;SDS011;5793;52.238;13.438;2024-01-15T12:10:10;6.43;;;4.40;;
11473;SDS011;5793;52.238;13.438;2024-01-15T12:12:56;5.07;;;4.20;;
11473;SDS011;5793;52.238;13.438;2024-01-15T12:15:26;7.43;;;5.20;;
11473;SDS011;5793;52.238;13.438;2024-01-15T12:17:56;5.20;;;4.20;;
11473;SDS011;5793;52.238;13.438;2024-01-15T12:20:27;5.73;;;4.20;;
11473;SDS011;5793;52.238;13.438;2024-01-15T12:22:55;6.43;;;4.03;;
11473;SDS011;5793;52.238;13.438;2024-01-15T12:25:29;5.40;;;4.10;;
11473;SDS011;5793;52.238;13.438;2024-01-15T12:27:57;4.83;;;3.80;;
11473;SDS011;5793;52.238;13.438;2024-01-15T12:30:27;5.00;;;3.47;;
11473;SDS011;5793;52.238;13.438;2024-01-15T12:32:58;4.97;;;4.07;;
11473;SDS011;5793;52.238;13.438;2024-01-15T12:35:30;4.97;;;3.57;;
11473;SDS011;5793;52.238;13.438;2024-01-15T12:37:59;11.87;;;8.20;;
11473;SDS011;5793;52.238;13.438;2024-01-15T12:40:28;4.13;;;3.20;;
11473;SDS011;5793;52.238;13.438;2024-01-15T12:42:58;4.90;;;3.37;;
11473;SDS011;5793;52.238;13.438;2024-01-15T12:45:25;5.10;;;3.53;;
11473;SDS011;5793;52.238;13.438;2024-01-15T12:47:52;6.43;;;4.63;;
11473;SDS011;5793;52.238;13.438;2024-01-15T12:50:23;6.13;;;4.63;;
11473;SDS011;5793;52.238;13.438;2024-01-15T12:52:53;4.50;;;2.90;;
11473;SDS011;5793;52.238;13.438;2024-01-15T12:55:21;3.73;;;3.10;;
11473;SDS011;5793;52.238;13.438;2024-01-15T12:57:49;5.73;;;3.13;;
11473;SDS011;5793;52.238;13.438;2024-01-15T13:00:19;4.53;;;3.73;;
11473;SDS011;5793;52.238;13.438;2024-01-15T13:02:47;5.40;;;3.50;;
11473;SDS011;5793;52.238;13.438;2024-01-15T13:05:16;7.23;;;5.20;;
11473;SDS011;5793;52.238;13.438;2024-01-15T13:07:44;4.53;;;3.70;;
11473;SDS011;5793;52.238;13.438;2024-01-15T13:10:13;5.67;;;3.33;;
11473;SDS011;5793;52.238;13.438;2024-01-15T13:12:41;5.80;;;3.63;;
11473;SDS011;5793;52.238;13.438;2024-01-15T13:15:09;3.73;;;3.27;;
11473;SDS011;5793;52.238;13.438;2024-01-15T13:17:40;5.10;;;3.47;;
11473;SDS011;5793;52.238;13.438;2024-01-15T13:20:09;6.63;;;4.30;;
11473;SDS011;5793;52.238;13.438;2024-01-15T13:22:38;6.67;;;4.40;;
11473;SDS011;5793;52.238;13.438;2024-01-15T13:25:07;6.70;;;3.63;;
11473;SDS011;5793;52.238;13.438;2024-01-15T13:27:37;7.50;;;4.03;;
11473;SDS011;5793;52.238;13.438;2024-01-15T13:30:07;8.13;;;4.67;;
11473;SDS011;5793;52.238;13.438;2024-01-15T13:32:36;6.93;;;4.50;;
11473;SDS011;5793;52.238;13.438;2024-01-15T13:35:04;7.50;;;3.73;;
11473;SDS011;5793;52.238;13.438;2024-01-15T13:37:36;4.33;;;3.17;;
11473;SDS011;5793;52.238;13.438;2024-01-15T13:40:05;4.97;;;3.30;;
11473;SDS011;5793;52.238;13.438;2024-01-15T13:42:36;8.13;;;3.43;;
11473;SDS011;5793;52.238;13.438;2024-01-15T13:45:05;10.20;;;5.50;;
11473;SDS011;5793;52.238;13.438;2024-01-15T13:47:34;12.40;;;5.97;;
11473;SDS011;5793;52.238;13.438;2024-01-15T13:50:02;18.77;;;11.23;;
11473;SDS011;5793;52.238;13.438;2024-01-15T13:52:30;6.93;;;3.83;;
11473;SDS011;5793;52.238;13.438;2024-01-15T13:54:58;8.63;;;5.00;;
11473;SDS011;5793;52.238;13.438;2024-01-15T13:57:26;9.17;;;5.17;;
11473;SDS011;5793;52.238;13.438;2024-01-15T13:59:55;5.80;;;3.70;;
11473;SDS011;5793;52.238;13.438;2024-01-15T14:02:23;9.07;;;3.53;;
11473;SDS011;5793;52.238;13.438;2024-01-15T14:04:52;9.57;;;4.10;;
11473;SDS011;5793;52.238;13.438;2024-01-15T14:07:20;13.33;;;6.23;;
11473;SDS011;5793;52.238;13.438;2024-01-15T14:09:48;10.80;;;5.70;;
11473;SDS011;5793;52.238;13.438;2024-01-15T14:12:16;10.80;;;5.77;;
11473;SDS011;5793;52.238;13.438;2024-01-15T14:14:44;9.93;;;4.27;;
11473;SDS011;5793;52.238;13.438;2024-01-15T14:17:13;6.73;;;3.07;;
11473;SDS011;5793;52.238;13.438;2024-01-15T14:19:41;7.93;;;3.07;;
11473;SDS011;5793;52.238;13.438;2024-01-15T14:22:09;9.43;;;4.23;;
11473;SDS011;5793;52.238;13.438;2024-01-15T14:24:37;7.30;;;4.13;;
11473;SDS011;5793;52.238;13.438;2024-01-15T14:27:05;7.97;;;3.37;;
11473;SDS011;5793;52.238;13.438;2024-01-15T14:29:33;7.43;;;3.40;;
11473;SDS011;5793;52.238;13.438;2024-01-15T14:32:02;5.90;;;2.87;;
11473;SDS011;5793;52.238;13.438;2024-01-15T14:34:31;6.93;;;3.33;;
11473;SDS011;5793;52.238;13.438;2024-01-15T14:36:59;6.70;;;2.83;;
11473;SDS011;5793;52.238;13.438;2024-01-15T14:39:27;10.30;;;3.20;;
11473;SDS011;5793;52.238;13.438;2024-01-15T14:41:55;8.33;;;3.93;;
11473;SDS011;5793;52.238;13.438;2024-01-15T14:44:23;6.77;;;3.57;;
11473;SDS011;5793;52.238;13.438;2024-01-15T14:46:51;10.00;;;3.60;;
11473;SDS011;5793;52.238;13.438;2024-01-15T14:49:18;9.60;;;3.67;;
11473;SDS011;5793;52.238;13.438;2024-01-15T14:51:48;9.47;;;5.00;;
11473;SDS011;5793;52.238;13.438;2024-01-15T14:54:16;9.80;;;5.50;;
11473;SDS011;5793;52.238;13.438;2024-01-15T14:56:46;5.77;;;2.97;;
11473;SDS011;5793;52.238;13.438;2024-01-15T14:59:14;6.40;;;3.67;;
11473;SDS011;5793;52.238;13.438;2024-01-15T15:01:41;9.10;;;3.10;;